Time;durP1;ratioP1;P1;durP2;ratioP2;P2;SDS_P1;SDS_P2;PMS_P1;PMS_P2;Temp;Humidity;BMP_temperature;BMP_pressure;BME280_temperature;BME280_humidity;BME280_pressure;Samples;Min_cycle;Max_cycle;Signal;HPM_P1;HPM_P2
2021/03/12 00:02:24;;;;;;;13.65;2.03;;;6.70;90.20;;;;;;5030933;28;20049;-87
2021/03/12 00:04:50;;;;;;;13.90;2.60;;;6.80;89.90;;;;;;5027419;28;20053;-87
2021/03/12 00:07:16;;;;;;;19.92;2.50;;;6.70;90.10;;;;;;5029102;28;20446;-88
2021/03/12 00:09:42;;;;;;;11.90;3.10;;;6.70;90.10;;;;;;5028106;28;20049;-88
2021/03/12 00:12:10;;;;;;;12.27;2.83;;;6.70;90.00;;;;;;5024289;28;20054;-87
2021/03/12 00:14:35;;;;;;;12.52;3.33;;;6.70;90.10;;;;;;5039808;28;20073;-88
2021/03/12 00:17:02;;;;;;;12.73;2.78;;;6.80;89.80;;;;;;5035820;28;20523;-87
2021/03/12 00:19:28;;;;;;;14.23;2.65;;;6.70;89.50;;;;;;5043935;28;20049;-88
2021/03/12 00:21:54;;;;;;;10.77;3.22;;;6.70;89.20;;;;;;5027003;28;20052;-88
2021/03/12 00:24:20;;;;;;;10.13;2.85;;;6.70;89.40;;;;;;5037726;28;20404;-88
2021/03/12 00:26:46;;;;;;;7.38;2.00;;;6.70;89.00;;;;;;5028173;28;20111;-88
2021/03/12 00:29:13;;;;;;;12.15;1.98;;;6.70;88.80;;;;;;5046584;28;20136;-87
2021/03/12 00:31:41;;;;;;;14.30;3.20;;;6.60;88.90;;;;;;5024181;28;20041;-88
2021/03/12 00:34:07;;;;;;;11.27;2.35;;;6.50;89.70;;;;;;5054122;28;20063;-88
2021/03/12 00:36:35;;;;;;;10.07;2.28;;;6.60;89.60;;;;;;5031535;28;20053;-88
2021/03/12 00:39:01;;;;;;;9.25;2.20;;;6.70;88.40;;;;;;5036709;28;20047;-87
2021/03/12 00:41:27;;;;;;;12.73;2.72;;;6.80;88.40;;;;;;5023158;28;20136;-86
2021/03/12 00:43:53;;;;;;;10.95;2.15;;;6.80;88.40;;;;;;5027880;28;20045;-87
2021/03/12 00:46:19;;;;;;;10.85;2.28;;;6.80;88.70;;;;;;5043275;28;20053;-87
2021/03/12 00:48:45;;;;;;;10.32;2.47;;;6.70;88.80;;;;;;5044233;28;20053;-88
2021/03/12 00:51:11;;;;;;;11.15;2.40;;;6.80;88.90;;;;;;5026043;28;20132;-88
2021/03/12 00:53:38;;;;;;;15.82;2.70;;;6.80;88.90;;;;;;5044328;28;20065;-88
2021/03/12 00:56:04;;;;;;;12.70;2.72;;;6.70;89.30;;;;;;5041769;28;20049;-88
2021/03/12 00:58:30;;;;;;;13.82;2.67;;;6.70;89.60;;;;;;5034283;28;20374;-87
2021/03/12 01:00:56;;;;;;;11.68;2.90;;;6.80;89.70;;;;;;5053091;28;20095;-87
2021/03/12 01:03:22;;;;;;;11.98;2.20;;;6.80;89.40;;;;;;5065078;28;20047;-88
2021/03/12 01:05:48;;;;;;;13.73;2.53;;;6.80;88.90;;;;;;5052481;28;20136;-87
2021/03/12 01:08:14;;;;;;;10.20;2.60;;;6.80;88.70;;;;;;5047177;28;20056;-88
2021/03/12 01:10:41;;;;;;;7.00;1.70;;;6.80;88.40;;;;;;5060200;28;20475;-87
2021/03/12 01:13:07;;;;;;;14.85;2.92;;;6.90;87.90;;;;;;5045055;28;20110;-87
2021/03/12 01:15:35;;;;;;;10.93;2.58;;;6.80;88.00;;;;;;5029492;28;20072;-88
2021/03/12 01:18:01;;;;;;;11.82;2.55;;;6.70;88.50;;;;;;5038585;28;20068;-88
2021/03/12 01:20:31;;;;;;;12.30;2.53;;;6.60;88.70;;;;;;5038294;28;20053;-87
2021/03/12 01:22:58;;;;;;;8.88;2.20;;;6.60;88.30;;;;;;5044151;28;20587;-88
2021/03/12 01:25:30;;;;;;;7.05;2.22;;;6.50;88.80;;;;;;5045379;28;20063;-88
2021/03/12 01:27:56;;;;;;;9.20;2.67;;;6.50;88.50;;;;;;5040110;28;20056;-87
2021/03/12 01:30:28;;;;;;;7.65;2.33;;;6.50;88.20;;;;;;5047231;28;20474;-88
2021/03/12 01:32:54;;;;;;;14.48;2.40;;;6.60;87.70;;;;;;5040740;28;20666;-88
2021/03/12 01:35:20;;;;;;;13.63;3.45;;;6.60;88.10;;;;;;5024607;28;20049;-86
2021/03/12 01:37:46;;;;;;;9.50;1.98;;;6.60;87.70;;;;;;5029184;28;20440;-89
2021/03/12 01:40:18;;;;;;;10.82;2.63;;;6.60;88.00;;;;;;5039724;28;20053;-88
2021/03/12 01:42:43;;;;;;;9.15;2.22;;;6.40;88.70;;;;;;5039607;28;20052;-87
2021/03/12 01:45:38;;;;;;;10.25;2.88;;;6.40;88.90;;;;;;5045989;28;20448;-88
2021/03/12 01:48:10;;;;;;;10.63;2.28;;;6.30;89.20;;;;;;5029829;28;20049;-86
2021/03/12 01:50:37;;;;;;;9.32;2.50;;;6.40;89.40;;;;;;5056257;28;20046;-87
2021/03/12 01:53:16;;;;;;;10.50;2.67;;;6.40;88.60;;;;;;5057745;28;20041;-87
2021/03/12 01:55:43;;;;;;;9.85;2.95;;;6.30;89.00;;;;;;5041435;28;20406;-88
2021/03/12 01:58:08;;;;;;;10.68;2.63;;;6.40;88.60;;;;;;5030333;28;20437;-87
2021/03/12 02:00:35;;;;;;;10.50;2.95;;;6.40;88.20;;;;;;5030981;28;20052;-89
2021/03/12 02:03:03;;;;;;;8.70;2.20;;;6.40;88.20;;;;;;5030334;28;20482;-88
2021/03/12 02:05:29;;;;;;;9.35;2.05;;;6.40;88.10;;;;;;5030317;28;20437;-86
2021/03/12 02:07:55;;;;;;;13.73;2.67;;;6.30;88.70;;;;;;5030653;28;20053;-88
2021/03/12 02:10:27;;;;;;;8.25;2.38;;;6.20;88.90;;;;;;5046190;28;20040;-87
2021/03/12 02:13:17;;;;;;;4.97;1.98;;;6.10;89.20;;;;;;5048041;28;20048;-88
2021/03/12 02:15:47;;;;;;;11.85;2.22;;;6.10;89.50;;;;;;5042109;28;20040;-89
2021/03/12 02:18:32;;;;;;;8.35;1.85;;;6.00;89.80;;;;;;5020279;28;20108;-88
2021/03/12 02:21:04;;;;;;;7.85;2.70;;;6.20;89.10;;;;;;5021989;28;20111;-88
2021/03/12 02:23:55;;;;;;;10.43;2.45;;;6.10;89.30;;;;;;5026733;28;20042;-88
2021/03/12 02:26:42;;;;;;;16.45;3.05;;;6.10;89.40;;;;;;5077232;28;20049;-88
2021/03/12 02:29:20;;;;;;;6.43;2.25;;;6.00;90.00;;;;;;5067570;28;20069;-88
2021/03/12 02:31:48;;;;;;;9.70;2.60;;;6.10;90.10;;;;;;5040072;28;20125;-87
2021/03/12 02:34:16;;;;;;;6.53;2.25;;;6.00;90.10;;;;;;5048287;28;20080;-88
2021/03/12 02:36:47;;;;;;;14.00;3.60;;;6.10;90.10;;;;;;5044822;28;20849;-87
2021/03/12 02:39:18;;;;;;;13.50;2.90;;;6.10;90.10;;;;;;5044755;28;20050;-88
2021/03/12 02:41:47;;;;;;;12.40;2.90;;;5.90;90.20;;;;;;5045647;28;20552;-88
2021/03/12 02:44:14;;;;;;;15.38;3.00;;;5.90;90.30;;;;;;5033341;28;20064;-87
2021/03/12 02:46:40;;;;;;;8.10;2.13;;;5.90;90.10;;;;;;5042985;28;20514;-88
2021/03/12 02:49:07;;;;;;;13.90;3.00;;;5.90;90.10;;;;;;5043312;28;20050;-88
2021/03/12 02:51:34;;;;;;;11.13;2.40;;;5.90;89.90;;;;;;5022471;28;20493;-87
2021/03/12 02:54:01;;;;;;;10.70;2.30;;;5.80;90.10;;;;;;5055747;28;20038;-88
2021/03/12 02:56:27;;;;;;;13.32;2.63;;;5.80;90.10;;;;;;5029145;28;20050;-87
2021/03/12 02:58:55;;;;;;;11.40;2.20;;;5.80;90.10;;;;;;5028452;28;20041;-88
2021/03/12 03:01:21;;;;;;;12.75;2.63;;;5.70;90.20;;;;;;5042425;28;20386;-87
2021/03/12 03:03:48;;;;;;;10.07;2.33;;;5.80;89.90;;;;;;5032487;28;20060;-89
2021/03/12 03:06:15;;;;;;;12.70;2.00;;;5.70;90.10;;;;;;5042139;28;20064;-88
2021/03/12 03:08:44;;;;;;;13.93;2.75;;;5.80;90.10;;;;;;5021804;28;20057;-88
2021/03/12 03:11:12;;;;;;;21.60;2.67;;;5.80;90.10;;;;;;5027558;28;20041;-88
2021/03/12 03:13:42;;;;;;;16.35;2.78;;;5.70;90.40;;;;;;5028001;28;20073;-88
2021/03/12 03:16:14;;;;;;;15.30;2.80;;;5.70;90.20;;;;;;5043386;28;20080;-88
2021/03/12 03:18:43;;;;;;;11.55;2.58;;;5.60;90.30;;;;;;5025770;28;20056;-88
2021/03/12 03:21:10;;;;;;;7.53;2.60;;;5.60;90.30;;;;;;5028385;28;20168;-87
2021/03/12 03:23:38;;;;;;;15.20;2.70;;;5.70;90.10;;;;;;5018502;28;20050;-87
2021/03/12 03:26:05;;;;;;;11.02;2.30;;;5.70;89.60;;;;;;5042488;28;20076;-87
2021/03/12 03:28:31;;;;;;;12.80;2.90;;;5.70;89.70;;;;;;5028116;28;20042;-87
2021/03/12 03:31:03;;;;;;;10.77;2.75;;;5.70;89.90;;;;;;5049273;28;20052;-87
2021/03/12 03:33:29;;;;;;;9.65;2.50;;;5.70;89.30;;;;;;5032261;28;20045;-87
2021/03/12 03:35:56;;;;;;;12.68;2.50;;;5.80;88.80;;;;;;5031571;28;20049;-88
2021/03/12 03:38:23;;;;;;;10.68;2.28;;;5.70;89.30;;;;;;5072635;28;20102;-87
2021/03/12 03:40:48;;;;;;;11.50;2.42;;;5.70;88.90;;;;;;5037981;28;20618;-87
2021/03/12 03:43:17;;;;;;;10.23;2.38;;;5.70;88.90;;;;;;5040601;28;20048;-88
2021/03/12 03:45:44;;;;;;;14.07;2.50;;;5.70;89.00;;;;;;5046196;28;20419;-88
2021/03/12 03:48:13;;;;;;;16.23;3.58;;;5.60;89.10;;;;;;5042481;28;20544;-88
2021/03/12 03:50:40;;;;;;;13.40;2.83;;;5.60;89.10;;;;;;5028387;28;20144;-87
2021/03/12 03:53:06;;;;;;;11.82;2.85;;;5.60;88.50;;;;;;5060939;28;20127;-87
2021/03/12 03:55:34;;;;;;;13.02;3.30;;;5.60;88.80;;;;;;5033185;28;20520;-87
2021/03/12 03:58:01;;;;;;;11.07;2.60;;;5.50;89.00;;;;;;5042147;28;20095;-88
2021/03/12 04:00:28;;;;;;;15.45;2.55;;;5.60;88.20;;;;;;5058386;28;20110;-87
2021/03/12 04:02:57;;;;;;;13.50;2.30;;;5.70;87.90;;;;;;5033501;28;20137;-88
2021/03/12 04:05:24;;;;;;;12.25;2.63;;;5.60;87.90;;;;;;5048364;28;20049;-88
2021/03/12 04:07:50;;;;;;;8.95;2.00;;;5.50;88.10;;;;;;5042853;28;20057;-87
2021/03/12 04:10:19;;;;;;;11.82;2.22;;;5.70;87.50;;;;;;5028235;28;20065;-88
2021/03/12 04:12:46;;;;;;;13.07;2.90;;;5.60;87.60;;;;;;5026566;28;20051;-88
2021/03/12 04:15:13;;;;;;;13.45;2.65;;;5.60;88.10;;;;;;5027401;28;20389;-88
2021/03/12 04:17:39;;;;;;;10.43;2.10;;;5.50;88.00;;;;;;5048134;28;20098;-88
2021/03/12 04:20:07;;;;;;;8.05;2.00;;;5.70;87.20;;;;;;5053199;28;20054;-88
2021/03/12 04:22:35;;;;;;;11.82;3.10;;;5.50;88.00;;;;;;5016527;28;20049;-86
2021/03/12 04:25:03;;;;;;;14.40;2.60;;;5.50;88.60;;;;;;5028906;28;20056;-87
2021/03/12 04:27:29;;;;;;;9.27;2.03;;;5.50;88.50;;;;;;5033241;28;20132;-88
2021/03/12 04:29:56;;;;;;;15.48;2.88;;;5.40;88.90;;;;;;5026117;28;20095;-87
2021/03/12 04:32:22;;;;;;;11.13;2.20;;;5.30;89.60;;;;;;5026072;28;20459;-87
2021/03/12 04:34:48;;;;;;;7.93;2.00;;;5.30;89.90;;;;;;5027261;28;20061;-86
2021/03/12 04:37:15;;;;;;;14.23;3.05;;;5.30;90.10;;;;;;5026629;28;20071;-87
2021/03/12 04:39:41;;;;;;;11.32;2.28;;;5.20;90.30;;;;;;5027188;28;20052;-88
2021/03/12 04:42:10;;;;;;;9.07;2.50;;;5.20;90.40;;;;;;5017644;28;20085;-88
2021/03/12 04:44:39;;;;;;;12.80;2.58;;;5.20;90.60;;;;;;5026164;28;20125;-88
2021/03/12 04:47:06;;;;;;;11.88;2.55;;;5.30;90.60;;;;;;5054314;28;20439;-88
2021/03/12 04:49:32;;;;;;;11.32;2.30;;;5.30;90.60;;;;;;5049022;28;20045;-86
2021/03/12 04:51:59;;;;;;;12.43;2.30;;;5.30;90.70;;;;;;5026452;28;20063;-88
2021/03/12 04:54:28;;;;;;;7.72;2.40;;;5.30;90.70;;;;;;5025691;28;20060;-87
2021/03/12 04:56:54;;;;;;;10.88;2.28;;;5.30;90.80;;;;;;5028824;28;20049;-89
2021/03/12 04:59:20;;;;;;;15.02;2.42;;;5.30;90.90;;;;;;5032199;28;20099;-88
2021/03/12 05:01:47;;;;;;;10.02;2.28;;;5.30;90.80;;;;;;5026516;28;20057;-88
2021/03/12 05:04:14;;;;;;;7.18;2.10;;;5.30;90.90;;;;;;5018228;28;20140;-88
2021/03/12 05:06:46;;;;;;;11.00;2.30;;;5.40;91.20;;;;;;5018295;28;20053;-88
2021/03/12 05:09:13;;;;;;;14.88;2.50;;;5.40;90.90;;;;;;5041744;28;20056;-88
2021/03/12 05:11:42;;;;;;;12.95;2.72;;;5.40;91.10;;;;;;5027247;28;20104;-88
2021/03/12 05:14:09;;;;;;;7.95;2.03;;;5.30;91.20;;;;;;5030073;28;20048;-88
2021/03/12 05:16:34;;;;;;;11.75;3.28;;;5.40;91.10;;;;;;5027283;28;20121;-88
2021/03/12 05:19:00;;;;;;;11.63;2.50;;;5.50;90.90;;;;;;5025347;28;20045;-87
2021/03/12 05:21:26;;;;;;;13.50;3.05;;;5.60;90.90;;;;;;5043769;28;20056;-89
2021/03/12 05:23:52;;;;;;;13.13;2.33;;;5.60;90.90;;;;;;5023614;28;20045;-88
2021/03/12 05:26:18;;;;;;;9.48;2.30;;;5.60;91.00;;;;;;5050214;28;20049;-88
2021/03/12 05:28:44;;;;;;;15.90;3.20;;;5.60;91.00;;;;;;5037591;28;20049;-89
2021/03/12 05:31:10;;;;;;;12.52;2.50;;;5.60;90.90;;;;;;5043941;28;20099;-88
2021/03/12 05:33:38;;;;;;;15.13;2.47;;;5.60;91.00;;;;;;5051459;28;20056;-87
2021/03/12 05:36:04;;;;;;;14.50;2.90;;;5.60;91.10;;;;;;5039035;28;20072;-88
2021/03/12 05:38:30;;;;;;;13.30;2.75;;;5.60;90.90;;;;;;5041019;28;20523;-87
2021/03/12 05:41:01;;;;;;;13.70;2.53;;;5.70;90.80;;;;;;5045258;28;20052;-88
2021/03/12 05:43:27;;;;;;;15.95;2.70;;;5.70;90.50;;;;;;5038206;28;20128;-87
2021/03/12 05:45:53;;;;;;;12.93;2.40;;;5.70;90.60;;;;;;5030462;28;20332;-90
2021/03/12 05:48:19;;;;;;;10.50;2.70;;;5.60;90.80;;;;;;5044448;28;20124;-85
2021/03/12 05:50:46;;;;;;;11.07;2.40;;;5.60;90.90;;;;;;5044661;28;20492;-87
2021/03/12 05:53:12;;;;;;;9.18;2.00;;;5.70;91.00;;;;;;5063942;28;20064;-87
2021/03/12 05:55:41;;;;;;;10.35;2.35;;;5.70;90.70;;;;;;5029307;28;20107;-87
2021/03/12 05:58:08;;;;;;;12.38;2.45;;;5.70;90.50;;;;;;5046116;28;20044;-86
2021/03/12 06:00:36;;;;;;;11.60;2.25;;;5.70;90.60;;;;;;5028604;28;20045;-86
2021/03/12 06:03:03;;;;;;;7.72;1.92;;;5.70;90.50;;;;;;5025213;28;20153;-88
2021/03/12 06:05:29;;;;;;;12.07;2.30;;;5.70;90.40;;;;;;5035181;28;20041;-87
2021/03/12 06:07:54;;;;;;;13.93;2.67;;;5.70;90.40;;;;;;5044233;28;20606;-87
2021/03/12 06:10:20;;;;;;;10.05;2.08;;;5.70;90.50;;;;;;5040954;28;20057;-89
2021/03/12 06:12:51;;;;;;;10.93;2.40;;;5.70;90.50;;;;;;5052382;28;20493;-89
2021/03/12 06:15:18;;;;;;;11.05;2.22;;;5.70;90.70;;;;;;5045013;28;20045;-88
2021/03/12 06:17:45;;;;;;;13.68;2.70;;;5.70;90.80;;;;;;5031284;28;20052;-88
2021/03/12 06:20:16;;;;;;;13.82;2.50;;;5.70;90.70;;;;;;5031149;28;20388;-87
2021/03/12 06:22:53;;;;;;;10.98;2.55;;;5.70;90.80;;;;;;5039577;28;20045;-87
2021/03/12 06:25:21;;;;;;;12.55;3.00;;;5.70;90.80;;;;;;5033167;28;20085;-87
2021/03/12 06:27:48;;;;;;;12.55;3.17;;;5.70;90.80;;;;;;5026448;28;20105;-88
2021/03/12 06:30:18;;;;;;;7.85;2.28;;;5.70;90.90;;;;;;5030086;28;20057;-88
2021/03/12 06:32:49;;;;;;;14.00;3.35;;;5.80;90.60;;;;;;5048479;28;20127;-87
2021/03/12 06:35:20;;;;;;;14.10;2.40;;;5.90;90.50;;;;;;5028325;28;20151;-89
2021/03/12 06:37:47;;;;;;;13.32;2.47;;;5.90;90.50;;;;;;5045463;28;20057;-86
2021/03/12 06:40:21;;;;;;;16.17;2.88;;;5.90;90.60;;;;;;5040320;28;20115;-88
2021/03/12 06:43:08;;;;;;;17.30;2.85;;;5.90;90.40;;;;;;5046534;28;20108;-88
2021/03/12 06:45:45;;;;;;;13.60;2.38;;;5.90;90.30;;;;;;5023711;28;20054;-88
2021/03/12 06:48:18;;;;;;;12.40;2.47;;;5.90;90.30;;;;;;5028539;28;20054;-89
2021/03/12 06:50:48;;;;;;;9.60;2.30;;;5.90;90.30;;;;;;5027778;28;20045;-89
2021/03/12 06:53:28;;;;;;;13.55;2.05;;;5.90;90.30;;;;;;5048443;28;20049;-88
2021/03/12 06:56:00;;;;;;;10.73;2.63;;;5.90;90.30;;;;;;5034977;28;20136;-90
2021/03/12 06:58:27;;;;;;;13.80;2.85;;;6.00;90.10;;;;;;5042278;28;20045;-88
2021/03/12 07:00:54;;;;;;;8.30;2.15;;;6.00;90.00;;;;;;5028879;28;20077;-87
2021/03/12 07:03:31;;;;;;;15.07;2.97;;;6.10;89.80;;;;;;5048231;28;20038;-88
2021/03/12 07:06:18;;;;;;;11.07;2.80;;;6.00;90.00;;;;;;5036119;28;20071;-88
2021/03/12 07:08:49;;;;;;;8.07;2.10;;;6.20;89.30;;;;;;5049530;28;20473;-90
2021/03/12 07:11:28;;;;;;;11.55;2.47;;;6.10;89.60;;;;;;5006110;28;20049;-88
2021/03/12 07:13:58;;;;;;;7.55;2.15;;;6.30;88.90;;;;;;5004523;28;20049;-89
2021/03/12 07:16:26;;;;;;;11.85;2.70;;;6.30;89.30;;;;;;5030134;28;20073;-89
2021/03/12 07:18:55;;;;;;;15.40;3.28;;;6.40;88.70;;;;;;5031125;28;20045;-89
2021/03/12 07:21:38;;;;;;;12.95;3.13;;;6.30;89.20;;;;;;4994115;28;20477;-89
2021/03/12 07:24:25;;;;;;;14.40;3.05;;;6.40;89.10;;;;;;4981796;28;20061;-90
2021/03/12 07:27:10;;;;;;;15.00;2.38;;;6.50;88.80;;;;;;5004971;28;20117;-89
2021/03/12 07:29:46;;;;;;;13.20;3.25;;;6.60;88.60;;;;;;5000759;28;20053;-89
2021/03/12 07:32:26;;;;;;;10.52;3.00;;;6.60;88.70;;;;;;5007457;28;20128;-89
2021/03/12 07:34:56;;;;;;;12.03;2.87;;;6.70;88.10;;;;;;4980894;28;20061;-89
2021/03/12 07:37:36;;;;;;;20.85;2.55;;;6.70;88.10;;;;;;5005035;28;20056;-90
2021/03/12 07:40:06;;;;;;;9.40;2.15;;;6.80;87.90;;;;;;5058456;28;20056;-88
2021/03/12 07:42:34;;;;;;;12.98;2.90;;;6.70;88.10;;;;;;5024915;28;20052;-89
2021/03/12 07:45:23;;;;;;;12.40;2.88;;;6.80;88.10;;;;;;4990387;28;20131;-91
2021/03/12 07:48:41;;;;;;;17.95;3.72;;;6.80;88.00;;;;;;4940270;28;20061;-90
2021/03/12 07:51:18;;;;;;;15.40;3.15;;;6.80;88.00;;;;;;4941683;28;20050;-90
2021/03/12 07:53:58;;;;;;;15.18;3.55;;;6.70;88.70;;;;;;4928989;28;20058;-91
2021/03/12 07:56:50;;;;;;;13.23;3.20;;;6.70;88.80;;;;;;4686947;28;8242284;-90
2021/03/12 07:59:46;;;;;;;19.13;4.97;;;6.80;88.90;;;;;;4840073;29;20068;-93
2021/03/12 08:02:58;;;;;;;15.00;4.03;;;6.90;88.60;;;;;;4915613;27;2630776;-92
2021/03/12 08:05:30;;;;;;;22.00;5.47;;;7.00;88.10;;;;;;4954806;28;20054;-86
2021/03/12 08:08:21;;;;;;;15.10;4.38;;;6.90;89.00;;;;;;4997420;28;20335;-87
2021/03/12 08:11:33;;;;;;;18.48;3.92;;;7.10;88.10;;;;;;4964108;28;20106;-88
2021/03/12 08:14:33;;;;;;;11.40;3.55;;;7.20;87.40;;;;;;5011837;28;20053;-87
2021/03/12 08:17:05;;;;;;;15.63;3.35;;;7.20;88.00;;;;;;4977618;28;20064;-86
2021/03/12 08:19:38;;;;;;;12.95;2.97;;;7.30;86.40;;;;;;5031791;28;20569;-86
2021/03/12 08:22:25;;;;;;;14.75;3.38;;;7.30;86.40;;;;;;5057655;28;20399;-89
2021/03/12 08:24:56;;;;;;;14.50;3.65;;;7.30;86.40;;;;;;5050667;28;20072;-88
2021/03/12 08:27:44;;;;;;;13.48;3.08;;;7.30;87.00;;;;;;5078138;28;20055;-86
2021/03/12 08:30:37;;;;;;;12.38;3.03;;;7.40;85.70;;;;;;5044974;28;20481;-84
2021/03/12 08:33:05;;;;;;;16.52;3.85;;;7.60;85.00;;;;;;5030572;28;20068;-84
2021/03/12 08:35:38;;;;;;;12.60;3.00;;;7.50;85.80;;;;;;5068623;28;20055;-85
2021/03/12 08:38:10;;;;;;;16.88;3.15;;;7.50;85.30;;;;;;5077456;28;20058;-88
2021/03/12 08:40:52;;;;;;;12.48;2.83;;;7.50;85.50;;;;;;5042895;28;20046;-89
2021/03/12 08:43:32;;;;;;;15.23;3.28;;;7.60;84.80;;;;;;5060064;28;20052;-88
2021/03/12 08:46:16;;;;;;;13.60;3.67;;;7.60;84.40;;;;;;5065851;28;20139;-88
2021/03/12 08:48:46;;;;;;;12.98;3.25;;;7.70;84.30;;;;;;5039427;28;20545;-88
2021/03/12 08:51:26;;;;;;;11.52;2.40;;;7.70;83.90;;;;;;5037750;28;20045;-89
2021/03/12 08:54:02;;;;;;;13.38;3.00;;;7.70;83.60;;;;;;5038220;28;20044;-89
2021/03/12 08:56:48;;;;;;;14.65;3.38;;;7.60;83.90;;;;;;5028741;28;20086;-89
2021/03/12 08:59:29;;;;;;;20.17;4.18;;;7.60;84.80;;;;;;5019488;28;20052;-88
2021/03/12 09:02:07;;;;;;;16.08;3.30;;;7.50;85.20;;;;;;5010433;28;20055;-89
2021/03/12 09:04:34;;;;;;;14.57;2.97;;;7.60;84.50;;;;;;5045244;28;20052;-87
2021/03/12 09:07:18;;;;;;;16.27;5.45;;;7.60;84.70;;;;;;5068023;28;20048;-89
2021/03/12 09:09:45;;;;;;;15.50;4.15;;;7.50;85.60;;;;;;5102367;28;20120;-88
2021/03/12 09:12:32;;;;;;;17.67;4.20;;;7.70;84.60;;;;;;5069952;28;20773;-86
2021/03/12 09:15:26;;;;;;;18.80;4.35;;;7.60;85.70;;;;;;5093349;28;20056;-86
2021/03/12 09:17:58;;;;;;;19.75;4.75;;;7.60;85.40;;;;;;5086932;28;20050;-86
2021/03/12 09:20:26;;;;;;;14.52;3.95;;;7.60;85.80;;;;;;5086205;28;20051;-87
2021/03/12 09:22:54;;;;;;;14.57;3.30;;;7.60;85.20;;;;;;5080664;28;20056;-88
2021/03/12 09:25:24;;;;;;;19.63;3.30;;;7.80;84.40;;;;;;5086727;28;20488;-84
2021/03/12 09:28:13;;;;;;;15.30;2.63;;;7.80;85.10;;;;;;5086351;28;20135;-84
2021/03/12 09:30:44;;;;;;;13.18;2.83;;;7.90;84.20;;;;;;5088130;28;20116;-89
2021/03/12 09:33:29;;;;;;;15.95;3.85;;;8.10;84.00;;;;;;5082103;28;20062;-86
2021/03/12 09:35:56;;;;;;;14.38;2.83;;;8.20;83.00;;;;;;5081602;28;20048;-84
2021/03/12 09:38:28;;;;;;;13.27;2.75;;;8.20;83.10;;;;;;5076086;28;20126;-86
2021/03/12 09:40:54;;;;;;;14.20;3.17;;;8.20;82.80;;;;;;5079104;28;20052;-86
2021/03/12 09:43:20;;;;;;;12.55;3.25;;;8.10;83.20;;;;;;5085913;28;20071;-85
2021/03/12 09:45:50;;;;;;;16.15;3.25;;;8.00;84.40;;;;;;5076367;28;20484;-87
2021/03/12 09:48:16;;;;;;;14.43;2.30;;;7.80;86.80;;;;;;5072776;28;20396;-87
2021/03/12 09:50:42;;;;;;;12.93;3.33;;;7.70;87.80;;;;;;5083585;28;20051;-87
2021/03/12 09:53:09;;;;;;;17.05;4.10;;;7.40;89.80;;;;;;5089543;28;20052;-87
2021/03/12 09:55:37;;;;;;;17.35;3.22;;;7.10;90.40;;;;;;5085713;28;20044;-87
2021/03/12 09:58:09;;;;;;;16.13;3.97;;;7.00;90.90;;;;;;5086529;28;20051;-88
2021/03/12 10:00:37;;;;;;;15.10;3.22;;;6.90;91.10;;;;;;5085056;28;20515;-89
2021/03/12 10:03:03;;;;;;;17.73;3.50;;;6.70;91.70;;;;;;5090556;28;20097;-86
2021/03/12 10:05:29;;;;;;;15.48;3.45;;;6.60;92.20;;;;;;5083101;28;20135;-86
2021/03/12 10:08:06;;;;;;;14.15;2.92;;;6.60;92.30;;;;;;5077984;28;20189;-86
2021/03/12 10:10:35;;;;;;;12.05;3.28;;;6.70;92.40;;;;;;5091692;28;20166;-87
2021/03/12 10:13:04;;;;;;;14.77;2.80;;;6.80;92.00;;;;;;5084166;28;20044;-86
2021/03/12 10:15:39;;;;;;;16.15;3.15;;;6.90;92.20;;;;;;5068743;28;20405;-88
2021/03/12 10:18:05;;;;;;;16.52;3.53;;;7.00;92.70;;;;;;5088775;28;20072;-86
2021/03/12 10:20:35;;;;;;;14.73;4.20;;;7.10;92.90;;;;;;5079615;28;20165;-87
2021/03/12 10:23:05;;;;;;;18.17;4.20;;;7.00;93.10;;;;;;5087089;28;20048;-86
2021/03/12 10:25:36;;;;;;;22.05;4.85;;;7.10;92.80;;;;;;5085254;28;20059;-88
2021/03/12 10:28:10;;;;;;;22.92;4.60;;;7.00;93.00;;;;;;5071450;28;20051;-87
2021/03/12 10:30:41;;;;;;;15.30;3.63;;;7.10;93.00;;;;;;5081668;28;20060;-86
2021/03/12 10:33:08;;;;;;;22.02;4.57;;;7.20;92.30;;;;;;5080360;28;20395;-86
2021/03/12 10:35:39;;;;;;;12.98;3.42;;;7.40;92.20;;;;;;5104223;28;20043;-87
2021/03/12 10:38:05;;;;;;;14.75;4.22;;;7.50;91.80;;;;;;5103937;28;20055;-86
2021/03/12 10:40:41;;;;;;;15.07;3.88;;;7.50;91.90;;;;;;5077043;28;20053;-86
2021/03/12 10:43:36;;;;;;;20.80;4.85;;;7.70;91.00;;;;;;5088478;28;20483;-86
2021/03/12 10:46:07;;;;;;;24.75;5.88;;;7.50;92.20;;;;;;5066797;28;20052;-86
2021/03/12 10:48:41;;;;;;;18.95;4.78;;;7.60;91.90;;;;;;5103357;28;20090;-87
2021/03/12 10:51:07;;;;;;;20.35;4.60;;;7.60;92.20;;;;;;5084340;28;20556;-88
2021/03/12 10:53:49;;;;;;;12.02;3.33;;;7.60;91.80;;;;;;5079732;28;20100;-87
2021/03/12 10:56:16;;;;;;;14.80;3.60;;;7.70;91.20;;;;;;5085551;28;20454;-88
2021/03/12 10:58:42;;;;;;;14.55;3.40;;;7.60;91.40;;;;;;5080949;28;20123;-91
2021/03/12 11:01:41;;;;;;;16.23;3.25;;;7.40;91.80;;;;;;5080304;28;20048;-86
2021/03/12 11:04:09;;;;;;;16.27;3.95;;;7.50;91.90;;;;;;5019404;28;20480;-87
2021/03/12 11:06:36;;;;;;;18.83;4.90;;;7.70;91.30;;;;;;5086529;28;20376;-87
2021/03/12 11:09:09;;;;;;;20.63;5.00;;;7.50;91.90;;;;;;5099299;28;20070;-91
2021/03/12 11:11:35;;;;;;;23.13;5.43;;;7.50;92.20;;;;;;5085310;28;20353;-87
2021/03/12 11:14:03;;;;;;;14.35;4.15;;;7.30;92.50;;;;;;5082245;28;20081;-87
2021/03/12 11:16:30;;;;;;;14.43;3.40;;;7.30;92.50;;;;;;5079040;28;20044;-87
2021/03/12 11:18:55;;;;;;;13.63;3.50;;;7.50;91.50;;;;;;5060614;28;20075;-87
2021/03/12 11:21:24;;;;;;;10.52;2.72;;;7.60;91.00;;;;;;5088863;28;20559;-86
2021/03/12 11:23:50;;;;;;;14.27;2.88;;;7.80;90.00;;;;;;5070861;28;20498;-85
2021/03/12 11:26:17;;;;;;;7.72;1.80;;;7.80;90.10;;;;;;5082647;28;20058;-86
2021/03/12 11:28:44;;;;;;;7.65;1.83;;;7.90;89.40;;;;;;5086059;28;20122;-88
2021/03/12 11:31:12;;;;;;;7.35;1.80;;;7.90;88.90;;;;;;5056523;28;20070;-86
2021/03/12 11:33:38;;;;;;;5.50;1.60;;;7.70;90.20;;;;;;5084382;28;20127;-90
2021/03/12 11:36:06;;;;;;;6.55;1.73;;;7.60;90.20;;;;;;5072694;28;20490;-87
2021/03/12 11:38:32;;;;;;;7.50;2.13;;;7.50;90.90;;;;;;5073418;28;20048;-87
2021/03/12 11:40:58;;;;;;;10.18;3.40;;;7.60;91.40;;;;;;5086782;28;20125;-85
2021/03/12 11:43:28;;;;;;;13.30;4.50;;;7.70;91.10;;;;;;5084436;28;20052;-86
2021/03/12 11:45:54;;;;;;;11.30;4.55;;;7.60;91.70;;;;;;5084243;28;20128;-86
2021/03/12 11:48:22;;;;;;;15.27;5.50;;;7.80;91.40;;;;;;5089179;28;20044;-85
2021/03/12 11:50:48;;;;;;;15.30;5.40;;;7.90;91.00;;;;;;5085541;28;20087;-86
2021/03/12 11:53:14;;;;;;;12.20;4.80;;;7.80;91.50;;;;;;5089759;28;20059;-86
2021/03/12 11:55:40;;;;;;;11.02;4.80;;;7.80;91.30;;;;;;5052914;28;20489;-86
2021/03/12 11:58:06;;;;;;;13.63;5.03;;;7.90;91.30;;;;;;5089367;28;20055;-86
2021/03/12 12:00:32;;;;;;;11.75;4.00;;;8.10;90.70;;;;;;5079403;28;20041;-86
2021/03/12 12:02:59;;;;;;;13.07;4.00;;;8.20;90.90;;;;;;5071990;28;20040;-87
2021/03/12 12:05:26;;;;;;;11.18;4.53;;;8.30;90.00;;;;;;5067845;28;20052;-87
2021/03/12 12:07:52;;;;;;;9.07;3.72;;;8.50;90.30;;;;;;5082443;28;20056;-86
2021/03/12 12:10:19;;;;;;;12.77;3.92;;;8.60;90.40;;;;;;5084730;28;20070;-87
2021/03/12 12:12:46;;;;;;;9.52;3.45;;;8.60;89.30;;;;;;5089616;28;20089;-91
2021/03/12 12:15:17;;;;;;;10.77;3.58;;;8.70;87.50;;;;;;5086031;28;20048;-87
2021/03/12 12:17:44;;;;;;;8.77;3.45;;;8.70;86.90;;;;;;5088294;28;20040;-89
2021/03/12 12:20:16;;;;;;;11.73;3.65;;;8.70;87.70;;;;;;5089582;28;20059;-87
2021/03/12 12:22:45;;;;;;;10.48;3.33;;;8.70;87.40;;;;;;5075017;28;20374;-89
2021/03/12 12:25:14;;;;;;;13.55;3.85;;;8.80;87.80;;;;;;5081945;28;20126;-86
2021/03/12 12:27:40;;;;;;;11.35;3.92;;;8.70;87.50;;;;;;5088078;28;20056;-87
2021/03/12 12:30:07;;;;;;;10.68;3.15;;;8.80;88.30;;;;;;5088710;28;20510;-87
2021/03/12 12:32:34;;;;;;;11.07;2.95;;;8.80;87.60;;;;;;5087937;28;20040;-86
2021/03/12 12:35:00;;;;;;;15.18;4.07;;;8.90;86.40;;;;;;5089262;28;20046;-85
2021/03/12 12:37:26;;;;;;;12.00;3.63;;;8.70;87.10;;;;;;5086274;28;20055;-86
2021/03/12 12:39:52;;;;;;;10.35;3.17;;;8.70;87.50;;;;;;5099532;28;20048;-83
2021/03/12 12:42:18;;;;;;;11.82;3.50;;;8.80;87.40;;;;;;5087912;28;20048;-83
2021/03/12 12:44:44;;;;;;;12.60;3.35;;;8.80;87.20;;;;;;5085415;28;20044;-87
2021/03/12 12:47:10;;;;;;;12.68;4.07;;;9.00;87.00;;;;;;5082874;28;20508;-83
2021/03/12 12:49:35;;;;;;;14.23;4.22;;;9.10;85.80;;;;;;5103562;28;20054;-83
2021/03/12 12:52:03;;;;;;;16.65;3.83;;;9.00;86.60;;;;;;5090292;28;20040;-82
2021/03/12 12:54:29;;;;;;;13.40;4.22;;;9.00;87.40;;;;;;5086802;28;20052;-85
2021/03/12 12:56:54;;;;;;;11.40;3.80;;;8.80;88.70;;;;;;5079879;28;20045;-87
2021/03/12 12:59:20;;;;;;;12.85;4.68;;;8.90;87.20;;;;;;5089011;28;20369;-86
2021/03/12 13:01:46;;;;;;;13.25;4.30;;;8.80;88.90;;;;;;5083042;28;20081;-88
2021/03/12 13:04:12;;;;;;;11.77;4.20;;;9.00;88.40;;;;;;5077532;28;20055;-88
2021/03/12 13:06:38;;;;;;;15.95;4.50;;;9.20;87.80;;;;;;5087620;28;20047;-88